createdAt,value
2022-08-16T00:01:37.661Z,10
2022-08-16T00:04:37.724Z,11
2022-08-16T00:07:37.660Z,11
2022-08-16T00:10:37.679Z,11
2022-08-16T00:13:37.711Z,12
2022-08-16T00:16:37.669Z,10
2022-08-16T00:19:37.690Z,11
2022-08-16T00:22:37.692Z,11
2022-08-16T00:25:37.717Z,14
2022-08-16T00:28:37.699Z,12
2022-08-16T00:31:37.713Z,8
2022-08-16T00:34:37.719Z,12
2022-08-16T00:37:37.727Z,11
2022-08-16T00:40:37.728Z,11
2022-08-16T00:43:37.735Z,10
2022-08-16T00:46:37.750Z,11
2022-08-16T00:49:37.754Z,11
2022-08-16T00:52:37.765Z,10
2022-08-16T00:55:37.768Z,9
2022-08-16T00:58:37.777Z,11
2022-08-16T01:01:37.773Z,11
2022-08-16T01:04:37.795Z,11
2022-08-16T01:07:37.785Z,12
2022-08-16T01:10:37.786Z,10
2022-08-16T01:13:37.815Z,12
2022-08-16T01:16:37.804Z,10
2022-08-16T01:19:37.817Z,11
2022-08-16T01:22:37.847Z,11
2022-08-16T01:25:37.857Z,9
2022-08-16T01:28:37.825Z,10
2022-08-16T01:31:37.828Z,11
2022-08-16T01:34:37.832Z,9
2022-08-16T01:37:37.849Z,8
2022-08-16T01:40:37.853Z,10
2022-08-16T01:43:37.866Z,7
2022-08-16T01:46:37.855Z,12
2022-08-16T01:49:37.860Z,10
2022-08-16T01:52:37.868Z,11
2022-08-16T01:55:37.859Z,11
2022-08-16T01:58:37.893Z,9
2022-08-16T02:01:37.903Z,8
2022-08-16T02:04:37.897Z,12
2022-08-16T02:07:37.897Z,10
2022-08-16T02:10:37.895Z,10
2022-08-16T02:13:37.914Z,9
2022-08-16T02:16:37.954Z,9
2022-08-16T02:19:37.910Z,10
2022-08-16T02:22:37.920Z,9
2022-08-16T02:25:37.929Z,9
2022-08-16T02:28:37.942Z,10
2022-08-16T02:31:37.958Z,12
2022-08-16T02:34:37.936Z,10
2022-08-16T02:37:37.958Z,9
2022-08-16T02:40:37.975Z,11
2022-08-16T02:43:37.963Z,9
2022-08-16T02:46:37.966Z,10
2022-08-16T02:49:37.986Z,9
2022-08-16T02:52:38.005Z,9
2022-08-16T02:55:37.995Z,9
2022-08-16T02:58:38.011Z,8
2022-08-16T03:01:38.007Z,8
2022-08-16T03:04:38.017Z,10
2022-08-16T03:07:38.024Z,9
2022-08-16T03:10:38.017Z,9
2022-08-16T03:13:38.041Z,9
2022-08-16T03:16:38.028Z,12
2022-08-16T03:19:38.046Z,10
2022-08-16T03:22:38.048Z,9
2022-08-16T03:25:38.055Z,9
2022-08-16T03:28:38.054Z,11
2022-08-16T03:31:38.067Z,11
2022-08-16T03:34:38.064Z,10
2022-08-16T03:37:38.087Z,10
2022-08-16T03:40:38.087Z,9
2022-08-16T03:43:38.113Z,10
2022-08-16T03:46:38.083Z,9
2022-08-16T03:49:38.082Z,10
2022-08-16T03:52:38.098Z,10
2022-08-16T03:55:38.102Z,10
2022-08-16T03:58:38.116Z,11
2022-08-16T04:01:38.106Z,12
2022-08-16T04:04:38.122Z,13
2022-08-16T04:07:38.120Z,9
2022-08-16T04:10:38.138Z,9
2022-08-16T04:13:38.138Z,12
2022-08-16T04:16:38.153Z,10
2022-08-16T04:19:38.140Z,13
2022-08-16T04:22:38.172Z,11
2022-08-16T04:25:38.167Z,14
2022-08-16T04:28:38.175Z,12
2022-08-16T04:31:38.176Z,11
2022-08-16T04:34:38.171Z,12
2022-08-16T04:37:38.196Z,11
2022-08-16T04:40:38.184Z,12
2022-08-16T04:43:38.198Z,13
2022-08-16T04:46:38.192Z,8
2022-08-16T04:49:38.205Z,10
2022-08-16T04:52:38.221Z,10
2022-08-16T04:55:38.225Z,11
2022-08-16T04:58:38.218Z,10
2022-08-16T05:01:38.221Z,9
2022-08-16T05:04:38.233Z,8
2022-08-16T05:07:38.225Z,11
2022-08-16T05:10:38.251Z,9
2022-08-16T05:13:38.240Z,11
2022-08-16T05:16:38.251Z,10
2022-08-16T05:19:38.274Z,12
2022-08-16T05:22:38.263Z,11
2022-08-16T05:25:38.289Z,8
2022-08-16T05:28:38.267Z,9
2022-08-16T05:31:38.287Z,10
2022-08-16T05:34:38.302Z,10
2022-08-16T05:37:38.309Z,10
2022-08-16T05:40:38.308Z,7
2022-08-16T05:46:43.464Z,9
2022-08-16T05:49:38.325Z,9
2022-08-16T05:52:38.320Z,10
2022-08-16T05:55:38.335Z,11
2022-08-16T05:58:38.326Z,8
2022-08-16T06:01:38.328Z,10
2022-08-16T06:04:38.352Z,10
2022-08-16T06:07:38.342Z,11
2022-08-16T06:10:38.346Z,8
2022-08-16T06:13:38.363Z,9
2022-08-16T06:16:38.376Z,8
2022-08-16T06:19:38.384Z,7
2022-08-16T06:22:38.378Z,9
2022-08-16T06:25:38.394Z,7
2022-08-16T06:28:38.400Z,8
2022-08-16T06:31:38.400Z,9
2022-08-16T06:34:38.402Z,8
2022-08-16T06:37:38.422Z,7
2022-08-16T06:40:38.452Z,6
2022-08-16T06:43:38.428Z,9
2022-08-16T06:46:38.417Z,7
2022-08-16T06:49:38.418Z,8
2022-08-16T06:52:38.435Z,8
2022-08-16T06:55:38.441Z,9
2022-08-16T06:58:38.459Z,7
2022-08-16T07:01:38.453Z,7
2022-08-16T07:04:38.452Z,7
2022-08-16T07:07:38.454Z,8
2022-08-16T07:10:38.454Z,6
2022-08-16T07:13:38.496Z,7
2022-08-16T07:16:38.505Z,8
2022-08-16T07:19:38.484Z,9
2022-08-16T07:22:38.475Z,8
2022-08-16T07:25:38.493Z,8
2022-08-16T07:28:38.503Z,7
2022-08-16T07:31:38.496Z,8
2022-08-16T07:34:38.505Z,8
2022-08-16T07:37:38.494Z,9
2022-08-16T07:40:38.507Z,5
2022-08-16T07:43:38.518Z,6
2022-08-16T07:46:38.527Z,6
2022-08-16T07:49:38.536Z,6
2022-08-16T07:52:38.562Z,7
2022-08-16T07:55:38.541Z,6
2022-08-16T07:58:38.544Z,7
2022-08-16T08:01:38.555Z,6
2022-08-16T08:04:38.565Z,5
2022-08-16T08:07:38.559Z,11
2022-08-16T08:10:38.574Z,10
2022-08-16T08:13:38.570Z,10
2022-08-16T08:16:38.628Z,11
2022-08-16T08:19:38.582Z,12
2022-08-16T08:22:38.585Z,10
2022-08-16T08:25:38.594Z,10
2022-08-16T08:28:38.602Z,12
2022-08-16T08:31:38.603Z,11
2022-08-16T08:34:38.617Z,11
2022-08-16T08:37:38.625Z,11
2022-08-16T08:40:38.621Z,13
2022-08-16T08:43:38.630Z,9
2022-08-16T08:46:38.628Z,10
2022-08-16T08:49:38.653Z,10
2022-08-16T08:52:38.653Z,11
2022-08-16T08:55:38.662Z,11
2022-08-16T08:58:38.655Z,11
2022-08-16T09:01:42.379Z,11
2022-08-16T09:04:38.671Z,10
2022-08-16T09:07:38.673Z,9
2022-08-16T09:10:38.691Z,11
2022-08-16T09:13:38.684Z,9
2022-08-16T09:16:38.688Z,11
2022-08-16T09:19:38.696Z,12
2022-08-16T09:22:38.721Z,13
2022-08-16T09:25:38.710Z,10
2022-08-16T09:28:38.713Z,13
2022-08-16T09:31:38.732Z,12
2022-08-16T09:34:38.735Z,12
2022-08-16T09:37:38.750Z,9
2022-08-16T09:40:38.784Z,11
2022-08-16T09:43:38.737Z,11
2022-08-16T09:46:38.748Z,9
2022-08-16T09:49:38.780Z,9
2022-08-16T09:52:38.756Z,10
2022-08-16T09:55:38.828Z,11
2022-08-16T09:58:38.782Z,12
2022-08-16T10:01:38.775Z,11
2022-08-16T10:04:38.807Z,10
2022-08-16T10:07:38.794Z,13
2022-08-16T10:10:38.805Z,13
2022-08-16T10:13:38.811Z,11
2022-08-16T10:16:38.824Z,12
2022-08-16T10:19:38.826Z,14
2022-08-16T10:22:38.831Z,19
2022-08-16T10:25:38.829Z,13
2022-08-16T10:28:38.842Z,15
2022-08-16T10:31:38.872Z,18
2022-08-16T10:34:38.842Z,16
2022-08-16T10:37:38.880Z,23
2022-08-16T10:40:38.857Z,18
2022-08-16T10:43:38.866Z,25
2022-08-16T10:46:38.878Z,27
2022-08-16T10:49:38.878Z,32
2022-08-16T10:52:38.879Z,36
2022-08-16T10:55:38.890Z,40
2022-08-16T10:58:38.953Z,39
2022-08-16T11:01:38.899Z,39
2022-08-16T11:04:38.903Z,40
2022-08-16T11:07:38.942Z,34
2022-08-16T11:10:38.923Z,37
2022-08-16T11:13:38.932Z,39
2022-08-16T11:16:39.003Z,38
2022-08-16T11:19:38.945Z,36
2022-08-16T11:22:38.926Z,38
2022-08-16T11:25:38.965Z,38
2022-08-16T11:28:38.953Z,42
2022-08-16T11:31:38.976Z,41
2022-08-16T11:34:38.975Z,41
2022-08-16T11:37:38.958Z,39
2022-08-16T11:40:38.976Z,42
2022-08-16T11:43:38.976Z,39
2022-08-16T11:46:38.984Z,38
2022-08-16T11:49:38.994Z,37
2022-08-16T11:52:39.006Z,38
2022-08-16T11:55:39.002Z,35
2022-08-16T11:58:39.004Z,37
2022-08-16T12:01:39.019Z,38
2022-08-16T12:04:39.020Z,37
2022-08-16T12:07:39.024Z,37
2022-08-16T12:10:39.051Z,35
2022-08-16T12:13:39.050Z,37
2022-08-16T12:16:39.090Z,37
2022-08-16T12:19:39.090Z,36
2022-08-16T12:22:39.044Z,35
2022-08-16T12:25:39.064Z,38
2022-08-16T12:28:39.068Z,35
2022-08-16T12:31:39.059Z,35
2022-08-16T12:34:39.090Z,35
2022-08-16T12:37:39.119Z,37
2022-08-16T12:40:39.100Z,35
2022-08-16T12:43:39.106Z,37
2022-08-16T12:46:39.095Z,36
2022-08-16T12:49:39.119Z,35
2022-08-16T12:52:39.123Z,29
2022-08-16T12:55:39.124Z,28
2022-08-16T12:58:39.127Z,21
2022-08-16T13:01:39.137Z,20
2022-08-16T13:04:39.143Z,20
2022-08-16T13:07:39.164Z,20
2022-08-16T13:10:39.146Z,21
2022-08-16T13:13:39.146Z,20
2022-08-16T13:16:39.153Z,20
2022-08-16T13:19:39.166Z,21
2022-08-16T13:22:39.218Z,19
2022-08-16T13:25:39.177Z,19
2022-08-16T13:28:39.206Z,16
2022-08-16T13:31:39.195Z,15
2022-08-16T13:37:39.510Z,16
2022-08-16T13:40:39.212Z,14
2022-08-16T13:43:39.210Z,14
2022-08-16T13:46:39.212Z,16
2022-08-16T13:49:39.232Z,12
2022-08-16T13:52:39.234Z,14
2022-08-16T13:55:39.280Z,16
2022-08-16T13:58:39.243Z,13
2022-08-16T14:01:39.241Z,14
2022-08-16T14:04:39.258Z,15
2022-08-16T14:07:39.262Z,14
2022-08-16T14:10:39.270Z,12
2022-08-16T14:13:39.274Z,16
2022-08-16T14:16:39.277Z,11
2022-08-16T14:19:39.275Z,11
2022-08-16T14:22:39.297Z,12
2022-08-16T14:25:39.298Z,17
2022-08-16T14:28:39.298Z,13
2022-08-16T14:31:39.296Z,12
2022-08-16T14:34:39.330Z,12
2022-08-16T14:37:39.302Z,11
2022-08-16T14:40:39.313Z,12
2022-08-16T14:43:39.346Z,11
2022-08-16T14:46:39.337Z,12
2022-08-16T14:49:39.359Z,11
2022-08-16T14:52:41.573Z,11
2022-08-16T14:55:39.341Z,10
2022-08-16T14:58:39.355Z,12
2022-08-16T15:01:41.456Z,12
2022-08-16T15:04:39.353Z,11
2022-08-16T15:07:39.365Z,10
2022-08-16T15:10:39.368Z,10
2022-08-16T15:13:40.529Z,10
2022-08-16T15:16:39.378Z,11
2022-08-16T15:19:39.379Z,11
2022-08-16T15:22:39.379Z,9
2022-08-16T15:25:39.395Z,10
2022-08-16T15:28:39.391Z,11
2022-08-16T15:31:39.394Z,8
2022-08-16T15:34:39.407Z,9
2022-08-16T15:37:39.406Z,11
2022-08-16T15:40:39.431Z,11
2022-08-16T15:43:39.428Z,8
2022-08-16T15:46:39.422Z,9
2022-08-16T15:49:39.445Z,9
2022-08-16T15:52:39.454Z,9
2022-08-16T15:55:39.463Z,9
2022-08-16T15:58:39.461Z,7
2022-08-16T16:01:39.460Z,7
2022-08-16T16:04:39.462Z,6
2022-08-16T16:07:39.471Z,5
2022-08-16T16:10:39.472Z,6
2022-08-16T16:13:39.476Z,4
2022-08-16T16:16:39.505Z,5
2022-08-16T16:19:39.509Z,5
2022-08-16T16:22:39.505Z,4
2022-08-16T16:25:39.512Z,3
2022-08-16T16:28:39.556Z,4
2022-08-16T16:31:39.501Z,3
2022-08-16T16:34:39.557Z,2
2022-08-16T16:37:40.539Z,3
2022-08-16T16:40:39.573Z,3
2022-08-16T16:43:39.540Z,2
2022-08-16T16:46:39.542Z,2
2022-08-16T16:49:39.544Z,2
2022-08-16T16:52:39.552Z,4
2022-08-16T16:55:39.566Z,4
2022-08-16T16:58:39.572Z,3
2022-08-16T17:01:39.554Z,2
2022-08-16T17:04:39.564Z,2
2022-08-16T17:07:39.589Z,4
2022-08-16T17:10:39.612Z,2
2022-08-16T17:13:39.599Z,3
2022-08-16T17:16:39.592Z,2
2022-08-16T17:19:39.606Z,1
2022-08-16T17:22:39.612Z,2
2022-08-16T17:25:39.607Z,1
2022-08-16T17:28:39.611Z,1
2022-08-16T17:31:39.620Z,1
2022-08-16T17:34:39.658Z,1
2022-08-16T17:37:39.630Z,2
2022-08-16T17:40:39.631Z,0
2022-08-16T17:43:39.645Z,1
2022-08-16T17:46:39.659Z,0
2022-08-16T17:49:39.634Z,2
2022-08-16T17:52:39.655Z,0
2022-08-16T17:55:39.678Z,1
2022-08-16T17:58:39.667Z,2
2022-08-16T18:01:39.687Z,0
2022-08-16T18:04:39.690Z,0
2022-08-16T18:07:41.049Z,2
2022-08-16T18:10:39.707Z,1
2022-08-16T18:13:39.714Z,1
2022-08-16T18:16:39.713Z,1
2022-08-16T18:19:39.728Z,0
2022-08-16T18:22:39.725Z,1
2022-08-16T18:25:39.743Z,1
2022-08-16T18:28:39.729Z,2
2022-08-16T18:31:39.732Z,1
2022-08-16T18:34:39.744Z,2
2022-08-16T18:37:39.757Z,2
2022-08-16T18:40:39.750Z,3
2022-08-16T18:43:41.044Z,2
2022-08-16T18:46:39.755Z,1
2022-08-16T18:49:39.775Z,2
2022-08-16T18:52:39.786Z,1
2022-08-16T18:55:39.799Z,0
2022-08-16T18:58:39.803Z,1
2022-08-16T19:01:39.804Z,2
2022-08-16T19:04:39.824Z,3
2022-08-16T19:07:39.818Z,1
2022-08-16T19:10:39.823Z,1
2022-08-16T19:13:39.822Z,2
2022-08-16T19:16:39.825Z,2
2022-08-16T19:19:39.830Z,3
2022-08-16T19:22:39.867Z,2
2022-08-16T19:25:39.871Z,2
2022-08-16T19:28:39.853Z,1
2022-08-16T19:31:39.872Z,1
2022-08-16T19:34:39.858Z,2
2022-08-16T19:37:39.866Z,2
2022-08-16T19:40:39.884Z,3
2022-08-16T19:43:39.881Z,3
2022-08-16T19:46:39.874Z,2
2022-08-16T19:49:39.890Z,1
2022-08-16T19:52:39.907Z,2
2022-08-16T19:55:39.922Z,3
2022-08-16T19:58:39.914Z,2
2022-08-16T20:01:39.907Z,2
2022-08-16T20:04:39.921Z,1
2022-08-16T20:07:39.931Z,1
2022-08-16T20:10:39.925Z,1
2022-08-16T20:13:39.943Z,2
2022-08-16T20:16:39.961Z,1
2022-08-16T20:19:39.947Z,1
2022-08-16T20:22:39.973Z,1
2022-08-16T20:25:41.104Z,2
2022-08-16T20:28:39.982Z,2
2022-08-16T20:31:39.970Z,1
2022-08-16T20:34:39.987Z,2
2022-08-16T20:37:39.993Z,2
2022-08-16T20:40:39.987Z,2
2022-08-16T20:43:40.007Z,1
2022-08-16T20:46:40.041Z,1
2022-08-16T20:49:40.015Z,1
2022-08-16T20:52:40.019Z,2
2022-08-16T20:55:40.039Z,0
2022-08-16T20:58:40.023Z,0
2022-08-16T21:01:40.050Z,1
2022-08-16T21:04:40.050Z,1
2022-08-16T21:07:40.042Z,1
2022-08-16T21:10:40.062Z,0
2022-08-16T21:13:40.069Z,1
2022-08-16T21:16:40.068Z,1
2022-08-16T21:19:40.097Z,0
2022-08-16T21:22:40.074Z,1
2022-08-16T21:25:40.101Z,1
2022-08-16T21:31:40.102Z,1
2022-08-16T21:34:40.115Z,1
2022-08-16T21:37:40.122Z,1
2022-08-16T21:40:40.113Z,0
2022-08-16T21:43:40.123Z,1
2022-08-16T21:46:40.116Z,1
2022-08-16T21:49:40.132Z,1
2022-08-16T21:52:40.136Z,0
2022-08-16T21:55:40.160Z,0
2022-08-16T21:58:40.199Z,1
2022-08-16T22:01:40.157Z,1
2022-08-16T22:04:40.164Z,1
2022-08-16T22:07:40.177Z,0
2022-08-16T22:10:40.180Z,2
2022-08-16T22:13:40.181Z,1
2022-08-16T22:16:40.201Z,0
2022-08-16T22:19:40.205Z,1
2022-08-16T22:22:40.195Z,0
2022-08-16T22:25:40.202Z,1
2022-08-16T22:28:40.211Z,0
2022-08-16T22:31:40.206Z,1
2022-08-16T22:34:40.229Z,1
2022-08-16T22:37:40.226Z,1
2022-08-16T22:40:40.219Z,1
2022-08-16T22:43:40.236Z,0
2022-08-16T22:46:40.258Z,2
2022-08-16T22:49:40.248Z,1
2022-08-16T22:52:40.307Z,0
2022-08-16T22:55:40.252Z,0
2022-08-16T22:58:40.273Z,0
2022-08-16T23:01:40.269Z,1
2022-08-16T23:04:40.272Z,1
2022-08-16T23:07:40.278Z,0
2022-08-16T23:10:40.289Z,1
2022-08-16T23:13:40.292Z,0
2022-08-16T23:16:40.309Z,1
2022-08-16T23:19:40.318Z,2
2022-08-16T23:22:40.318Z,1
2022-08-16T23:25:40.306Z,1
2022-08-16T23:28:40.332Z,1
2022-08-16T23:31:40.315Z,0
2022-08-16T23:34:40.330Z,1
2022-08-16T23:37:40.337Z,0
2022-08-16T23:40:40.353Z,1
2022-08-16T23:43:40.340Z,1
2022-08-16T23:46:40.354Z,1
2022-08-16T23:49:40.370Z,1
2022-08-16T23:52:40.381Z,0
2022-08-16T23:55:40.363Z,0
2022-08-16T23:58:40.382Z,0
